createdAt,value
2017-08-17T00:01:37.635Z,12.52
2017-08-17T00:04:05.357Z,11.98
2017-08-17T00:06:33.096Z,12.07
2017-08-17T00:09:00.819Z,11.88
2017-08-17T00:11:29.307Z,12.02
2017-08-17T00:13:57.033Z,11.57
2017-08-17T00:16:24.776Z,11.68
2017-08-17T00:18:52.510Z,11.48
2017-08-17T00:21:20.228Z,11.38
2017-08-17T00:23:47.955Z,11.23
2017-08-17T00:26:15.674Z,13.00
2017-08-17T00:28:44.158Z,11.25
2017-08-17T00:31:12.666Z,12.57
2017-08-17T00:33:40.392Z,11.70
2017-08-17T00:36:08.136Z,11.80
2017-08-17T00:38:35.912Z,11.90
2017-08-17T00:41:03.635Z,11.57
2017-08-17T00:43:31.393Z,11.52
2017-08-17T00:45:59.143Z,12.52
2017-08-17T00:48:26.879Z,12.75
2017-08-17T00:50:54.644Z,13.10
2017-08-17T00:53:22.389Z,11.32
2017-08-17T00:55:50.162Z,11.80
2017-08-17T00:58:17.918Z,12.95
2017-08-17T01:00:45.679Z,12.37
2017-08-17T01:03:13.422Z,11.80
2017-08-17T01:05:41.213Z,11.63
2017-08-17T01:08:09.017Z,13.23
2017-08-17T01:10:37.579Z,11.70
2017-08-17T01:13:05.330Z,13.18
2017-08-17T01:15:33.123Z,12.30
2017-08-17T01:18:01.655Z,12.20
2017-08-17T01:20:29.443Z,10.70
2017-08-17T01:22:57.233Z,11.93
2017-08-17T01:25:25.018Z,11.60
2017-08-17T01:27:52.814Z,12.13
2017-08-17T01:30:20.579Z,12.70
2017-08-17T01:32:48.375Z,12.50
2017-08-17T01:35:16.171Z,12.35
2017-08-17T01:37:44.740Z,11.02
2017-08-17T01:40:13.297Z,12.05
2017-08-17T01:42:41.144Z,11.55
2017-08-17T01:45:08.915Z,12.25
2017-08-17T01:47:36.706Z,11.65
2017-08-17T01:50:04.494Z,12.23
2017-08-17T01:52:33.063Z,11.88
2017-08-17T01:55:00.866Z,12.43
2017-08-17T01:57:28.642Z,11.85
2017-08-17T01:59:56.434Z,11.25
2017-08-17T02:02:24.219Z,12.25
2017-08-17T02:04:51.966Z,11.43
2017-08-17T02:07:19.747Z,12.75
2017-08-17T02:09:47.487Z,11.35
2017-08-17T02:12:15.350Z,11.52
2017-08-17T02:14:43.075Z,12.60
2017-08-17T02:17:10.798Z,12.65
2017-08-17T02:19:38.534Z,12.15
2017-08-17T02:22:06.267Z,11.85
2017-08-17T02:24:33.998Z,11.02
2017-08-17T02:27:01.714Z,10.55
2017-08-17T02:29:29.451Z,12.37
2017-08-17T02:31:57.183Z,11.73
2017-08-17T02:34:24.903Z,11.77
2017-08-17T02:36:52.620Z,11.68
2017-08-17T02:39:20.356Z,11.50
2017-08-17T02:41:48.087Z,11.05
2017-08-17T02:44:15.803Z,11.18
2017-08-17T02:46:43.535Z,10.95
2017-08-17T02:49:11.262Z,8.60
2017-08-17T02:51:39.755Z,10.15
2017-08-17T02:54:07.470Z,9.40
2017-08-17T02:56:35.184Z,8.70
2017-08-17T02:59:02.907Z,8.52
2017-08-17T03:01:30.627Z,6.60
2017-08-17T03:03:58.349Z,8.45
2017-08-17T03:06:26.094Z,9.13
2017-08-17T03:08:53.812Z,8.70
2017-08-17T03:11:21.548Z,9.35
2017-08-17T03:13:50.037Z,10.25
2017-08-17T03:16:18.514Z,9.95
2017-08-17T03:18:47.015Z,11.05
2017-08-17T03:21:14.743Z,10.82
2017-08-17T03:23:42.458Z,10.75
2017-08-17T03:26:10.185Z,10.93
2017-08-17T03:28:38.674Z,9.85
2017-08-17T03:31:07.203Z,9.52
2017-08-17T03:33:34.930Z,11.07
2017-08-17T03:36:02.654Z,10.85
2017-08-17T03:38:30.379Z,10.73
2017-08-17T03:40:58.101Z,9.02
2017-08-17T03:43:26.590Z,10.77
2017-08-17T03:45:55.078Z,10.27
2017-08-17T03:48:23.583Z,10.93
2017-08-17T03:50:51.305Z,10.43
2017-08-17T03:53:19.026Z,11.98
2017-08-17T03:55:46.751Z,12.65
2017-08-17T03:58:15.243Z,11.43
2017-08-17T04:00:42.959Z,11.12
2017-08-17T04:03:10.688Z,10.43
2017-08-17T04:05:38.417Z,11.00
2017-08-17T04:08:06.908Z,12.80
2017-08-17T04:10:35.403Z,9.68
2017-08-17T04:13:03.122Z,11.73
2017-08-17T04:15:30.838Z,9.93
2017-08-17T04:17:58.798Z,10.50
2017-08-17T04:20:26.514Z,10.82
2017-08-17T04:22:54.234Z,11.60
2017-08-17T04:25:21.949Z,11.27
2017-08-17T04:27:49.697Z,11.07
2017-08-17T04:30:17.499Z,11.48
2017-08-17T04:32:45.224Z,11.90
2017-08-17T04:35:12.950Z,10.82
2017-08-17T04:37:40.667Z,11.85
2017-08-17T04:40:08.394Z,10.45
2017-08-17T04:42:36.138Z,10.35
2017-08-17T04:45:03.901Z,11.38
2017-08-17T04:47:31.721Z,12.32
2017-08-17T04:49:59.487Z,12.85
2017-08-17T04:52:27.230Z,12.55
2017-08-17T04:54:54.957Z,12.52
2017-08-17T04:57:50.204Z,12.27
2017-08-17T05:00:17.954Z,11.50
2017-08-17T05:02:45.687Z,12.63
2017-08-17T05:05:13.439Z,13.85
2017-08-17T05:07:41.166Z,13.25
2017-08-17T05:10:08.900Z,13.10
2017-08-17T05:12:36.630Z,13.50
2017-08-17T05:15:04.372Z,13.48
2017-08-17T05:17:32.143Z,12.55
2017-08-17T05:19:59.870Z,13.35
2017-08-17T05:22:27.597Z,12.95
2017-08-17T05:24:56.102Z,14.60
2017-08-17T05:27:23.835Z,12.15
2017-08-17T05:29:51.550Z,12.88
2017-08-17T05:32:19.271Z,12.68
2017-08-17T05:34:47.799Z,11.90
2017-08-17T05:37:15.534Z,11.07
2017-08-17T05:39:43.272Z,12.15
2017-08-17T05:42:10.994Z,13.30
2017-08-17T05:44:38.740Z,11.73
2017-08-17T05:47:06.463Z,13.62
2017-08-17T05:49:34.190Z,11.27
2017-08-17T05:52:01.916Z,12.05
2017-08-17T05:54:29.655Z,12.27
2017-08-17T05:56:57.376Z,13.68
2017-08-17T05:59:25.110Z,14.23
2017-08-17T06:01:52.840Z,13.70
2017-08-17T06:04:20.562Z,15.27
2017-08-17T06:06:48.299Z,13.85
2017-08-17T06:09:16.783Z,15.18
2017-08-17T06:11:44.502Z,14.15
2017-08-17T06:14:12.233Z,14.23
2017-08-17T06:16:39.971Z,13.95
2017-08-17T06:19:08.454Z,14.13
2017-08-17T06:21:36.178Z,15.25
2017-08-17T06:24:03.903Z,14.30
2017-08-17T06:26:31.636Z,14.80
2017-08-17T06:29:00.126Z,14.38
2017-08-17T06:31:28.621Z,13.40
2017-08-17T06:33:56.353Z,16.55
2017-08-17T06:36:24.846Z,14.77
2017-08-17T06:38:53.351Z,34.08
2017-08-17T06:41:21.083Z,12.60
2017-08-17T06:43:48.804Z,12.98
2017-08-17T06:46:16.523Z,11.80
2017-08-17T06:48:45.015Z,12.00
2017-08-17T06:51:12.836Z,11.40
2017-08-17T06:53:40.566Z,11.57
2017-08-17T06:56:08.281Z,11.50
2017-08-17T06:58:36.035Z,12.15
2017-08-17T07:01:03.777Z,13.43
2017-08-17T07:03:31.511Z,12.85
2017-08-17T07:05:59.239Z,13.15
2017-08-17T07:08:26.967Z,12.80
2017-08-17T07:10:54.698Z,13.50
2017-08-17T07:13:22.421Z,12.60
2017-08-17T07:15:50.154Z,13.32
2017-08-17T07:18:17.890Z,15.00
2017-08-17T07:20:45.615Z,12.20
2017-08-17T07:23:13.340Z,14.32
2017-08-17T07:25:41.075Z,12.88
2017-08-17T07:28:09.577Z,13.35
2017-08-17T07:30:37.299Z,12.80
2017-08-17T07:33:05.030Z,12.75
2017-08-17T07:35:32.759Z,13.05
2017-08-17T07:38:00.489Z,12.73
2017-08-17T07:40:28.223Z,13.57
2017-08-17T07:42:55.957Z,13.68
2017-08-17T07:45:23.687Z,13.52
2017-08-17T07:47:51.420Z,14.02
2017-08-17T07:50:19.147Z,14.48
2017-08-17T07:52:46.911Z,15.65
2017-08-17T07:55:14.658Z,14.38
2017-08-17T07:57:43.204Z,14.00
2017-08-17T08:00:10.966Z,13.85
2017-08-17T08:02:38.734Z,14.90
2017-08-17T08:05:06.488Z,15.55
2017-08-17T08:07:34.215Z,15.73
2017-08-17T08:10:01.930Z,16.45
2017-08-17T08:12:29.694Z,15.75
2017-08-17T08:14:57.424Z,15.93
2017-08-17T08:17:25.187Z,15.43
2017-08-17T08:19:52.922Z,14.98
2017-08-17T08:22:21.412Z,15.65
2017-08-17T08:24:49.906Z,16.12
2017-08-17T08:27:17.638Z,15.32
2017-08-17T08:29:45.350Z,14.35
2017-08-17T08:32:13.074Z,14.48
2017-08-17T08:34:41.568Z,16.77
2017-08-17T08:37:09.300Z,16.12
2017-08-17T08:39:37.023Z,17.65
2017-08-17T08:42:04.835Z,14.13
2017-08-17T08:44:32.555Z,15.27
2017-08-17T08:47:00.282Z,15.20
2017-08-17T08:49:28.780Z,13.93
2017-08-17T08:51:56.517Z,14.70
2017-08-17T08:54:25.032Z,14.23
2017-08-17T08:56:52.756Z,15.65
2017-08-17T08:59:20.478Z,15.07
2017-08-17T09:01:48.210Z,13.88
2017-08-17T09:04:15.949Z,14.45
2017-08-17T09:06:43.680Z,15.27
2017-08-17T09:09:11.433Z,15.10
2017-08-17T09:11:39.156Z,15.85
2017-08-17T09:14:07.652Z,14.13
2017-08-17T09:16:35.391Z,15.35
2017-08-17T09:19:03.900Z,15.23
2017-08-17T09:21:31.631Z,15.13
2017-08-17T09:23:59.358Z,16.15
2017-08-17T09:26:27.152Z,17.05
2017-08-17T09:28:54.878Z,15.23
2017-08-17T09:31:22.603Z,15.20
2017-08-17T09:33:51.096Z,15.32
2017-08-17T09:36:19.576Z,16.92
2017-08-17T09:38:48.073Z,14.38
2017-08-17T09:44:22.198Z,15.80
2017-08-17T09:46:49.924Z,14.43
2017-08-17T09:49:17.648Z,15.77
2017-08-17T09:51:45.365Z,15.68
2017-08-17T09:54:13.091Z,16.75
2017-08-17T09:56:40.810Z,15.13
2017-08-17T09:59:09.290Z,15.27
2017-08-17T10:01:37.771Z,14.45
2017-08-17T10:04:06.265Z,14.43
2017-08-17T10:06:33.986Z,13.95
2017-08-17T10:09:01.733Z,15.30
2017-08-17T10:11:29.447Z,12.45
2017-08-17T10:13:57.190Z,14.05
2017-08-17T10:16:24.921Z,13.70
2017-08-17T10:18:52.638Z,14.60
2017-08-17T10:21:20.366Z,12.20
2017-08-17T10:23:48.091Z,13.32
2017-08-17T10:26:15.813Z,12.43
2017-08-17T10:28:43.522Z,12.55
2017-08-17T10:31:11.229Z,9.15
2017-08-17T10:33:38.946Z,11.43
2017-08-17T10:36:06.682Z,8.88
2017-08-17T10:38:34.412Z,8.98
2017-08-17T10:41:02.130Z,9.93
2017-08-17T10:43:29.854Z,8.50
2017-08-17T10:45:57.580Z,8.70
2017-08-17T10:48:25.294Z,9.50
2017-08-17T10:50:53.781Z,9.70
2017-08-17T10:53:22.282Z,8.07
2017-08-17T10:55:49.994Z,8.10
2017-08-17T10:58:17.725Z,7.55
2017-08-17T11:00:45.443Z,7.57
2017-08-17T11:03:13.170Z,8.02
2017-08-17T11:05:40.895Z,6.87
2017-08-17T11:08:08.619Z,7.47
2017-08-17T11:10:36.338Z,7.90
2017-08-17T11:13:04.063Z,7.20
2017-08-17T11:15:31.789Z,7.70
2017-08-17T11:17:59.510Z,7.60
2017-08-17T11:20:28.008Z,7.15
2017-08-17T11:22:55.730Z,7.55
2017-08-17T11:25:23.469Z,7.03
2017-08-17T11:27:51.195Z,7.28
2017-08-17T11:30:18.901Z,7.25
2017-08-17T11:32:46.612Z,7.30
2017-08-17T11:35:14.345Z,6.72
2017-08-17T11:37:42.078Z,7.10
2017-08-17T11:40:09.805Z,7.07
2017-08-17T11:42:37.537Z,6.78
2017-08-17T11:45:05.274Z,6.90
2017-08-17T11:47:32.994Z,5.93
2017-08-17T11:50:00.734Z,6.47
2017-08-17T11:52:28.458Z,6.05
2017-08-17T11:54:56.182Z,4.75
2017-08-17T11:57:24.664Z,5.07
2017-08-17T11:59:52.377Z,4.75
2017-08-17T12:02:20.094Z,4.20
2017-08-17T12:04:48.578Z,4.18
2017-08-17T12:07:16.296Z,4.20
2017-08-17T12:09:44.011Z,3.85
2017-08-17T12:12:11.726Z,4.20
2017-08-17T12:14:39.454Z,3.72
2017-08-17T12:17:07.183Z,4.10
2017-08-17T12:19:35.662Z,3.67
2017-08-17T12:22:03.374Z,4.28
2017-08-17T12:24:31.098Z,3.72
2017-08-17T12:26:58.838Z,4.03
2017-08-17T12:29:26.558Z,3.25
2017-08-17T12:31:54.279Z,3.90
2017-08-17T12:34:21.990Z,3.58
2017-08-17T12:36:49.713Z,3.78
2017-08-17T12:39:18.193Z,3.53
2017-08-17T12:41:45.930Z,4.03
2017-08-17T12:44:13.646Z,3.83
2017-08-17T12:46:41.369Z,3.50
2017-08-17T12:49:09.091Z,3.62
2017-08-17T12:51:36.815Z,3.45
2017-08-17T12:54:05.334Z,3.42
2017-08-17T12:56:33.073Z,3.70
2017-08-17T12:59:01.555Z,3.37
2017-08-17T13:01:30.046Z,3.05
2017-08-17T13:03:57.763Z,3.10
2017-08-17T13:06:25.479Z,3.70
2017-08-17T13:08:53.189Z,2.97
2017-08-17T13:11:20.914Z,3.10
2017-08-17T13:13:48.650Z,3.92
2017-08-17T13:16:17.145Z,3.15
2017-08-17T13:18:44.863Z,3.08
2017-08-17T13:21:12.586Z,2.87
2017-08-17T13:23:40.306Z,2.90
2017-08-17T13:26:08.031Z,2.90
2017-08-17T13:28:35.768Z,3.40
2017-08-17T13:31:03.508Z,3.92
2017-08-17T13:33:31.989Z,3.37
2017-08-17T13:36:00.471Z,3.35
2017-08-17T13:38:28.950Z,3.65
2017-08-17T13:40:56.672Z,3.45
2017-08-17T13:43:24.397Z,4.12
2017-08-17T13:45:52.886Z,2.65
2017-08-17T13:48:20.613Z,3.20
2017-08-17T13:50:48.333Z,3.05
2017-08-17T13:53:16.050Z,3.75
2017-08-17T13:55:43.771Z,2.90
2017-08-17T13:58:11.481Z,3.45
2017-08-17T14:00:40.004Z,3.00
2017-08-17T14:03:07.723Z,2.80
2017-08-17T14:05:35.435Z,3.47
2017-08-17T14:08:03.157Z,2.65
2017-08-17T14:10:31.672Z,2.80
2017-08-17T14:12:59.399Z,2.92
2017-08-17T14:15:27.882Z,2.30
2017-08-17T14:17:55.590Z,3.00
2017-08-17T14:20:23.309Z,2.60
2017-08-17T14:22:51.048Z,2.80
2017-08-17T14:25:18.762Z,2.33
2017-08-17T14:27:46.494Z,2.40
2017-08-17T14:30:14.213Z,2.58
2017-08-17T14:32:41.927Z,3.05
2017-08-17T14:35:09.656Z,2.80
2017-08-17T14:37:37.386Z,2.35
2017-08-17T14:40:05.093Z,2.85
2017-08-17T14:42:32.812Z,2.78
2017-08-17T14:45:00.535Z,2.05
2017-08-17T14:47:28.244Z,2.30
2017-08-17T14:49:55.958Z,2.30
2017-08-17T14:52:23.676Z,2.92
2017-08-17T14:54:51.417Z,2.80
2017-08-17T14:57:19.899Z,2.22
2017-08-17T14:59:48.394Z,2.20
2017-08-17T15:02:16.175Z,2.30
2017-08-17T15:04:43.959Z,2.58
2017-08-17T15:07:11.678Z,2.00
2017-08-17T15:09:40.166Z,2.30
2017-08-17T15:12:07.879Z,2.78
2017-08-17T15:14:35.614Z,2.70
2017-08-17T15:17:03.337Z,2.67
2017-08-17T15:19:31.834Z,2.42
2017-08-17T15:22:00.319Z,2.20
2017-08-17T15:24:28.033Z,2.28
2017-08-17T15:26:55.743Z,2.58
2017-08-17T15:29:24.234Z,2.45
2017-08-17T15:31:51.967Z,2.25
2017-08-17T15:34:19.677Z,2.33
2017-08-17T15:36:47.393Z,1.90
2017-08-17T15:39:15.123Z,1.75
2017-08-17T15:42:19.899Z,2.20
2017-08-17T15:44:48.383Z,2.10
2017-08-17T15:47:16.101Z,2.05
2017-08-17T15:49:43.843Z,2.05
2017-08-17T15:52:11.552Z,2.03
2017-08-17T15:54:39.266Z,2.00
2017-08-17T15:57:06.977Z,1.95
2017-08-17T15:59:34.693Z,2.05
2017-08-17T16:02:02.428Z,2.30
2017-08-17T16:04:30.913Z,2.40
2017-08-17T16:06:59.418Z,2.40
2017-08-17T16:09:27.146Z,2.10
2017-08-17T16:11:54.853Z,2.10
2017-08-17T16:14:22.568Z,2.28
2017-08-17T16:16:50.269Z,1.85
2017-08-17T16:19:17.978Z,2.05
2017-08-17T16:21:45.695Z,1.77
2017-08-17T16:24:13.406Z,1.90
2017-08-17T16:26:41.118Z,1.90
2017-08-17T16:29:08.826Z,2.05
2017-08-17T16:31:36.575Z,2.15
2017-08-17T16:34:04.302Z,1.92
2017-08-17T16:36:32.030Z,1.95
2017-08-17T16:38:59.762Z,2.00
2017-08-17T16:41:27.479Z,2.12
2017-08-17T16:43:55.968Z,1.92
2017-08-17T16:46:24.458Z,1.80
2017-08-17T16:48:52.182Z,1.80
2017-08-17T16:51:19.948Z,2.30
2017-08-17T16:53:47.675Z,2.20
2017-08-17T16:56:15.410Z,1.80
2017-08-17T16:58:43.890Z,2.17
2017-08-17T17:01:12.373Z,2.60
2017-08-17T17:03:40.860Z,2.05
2017-08-17T17:06:08.623Z,2.15
2017-08-17T17:08:37.097Z,2.75
2017-08-17T17:11:05.585Z,2.10
2017-08-17T17:13:34.078Z,2.40
2017-08-17T17:16:01.808Z,2.25
2017-08-17T17:18:30.318Z,2.10
2017-08-17T17:20:58.802Z,2.42
2017-08-17T17:23:26.525Z,2.15
2017-08-17T17:25:54.246Z,2.37
2017-08-17T17:28:21.949Z,2.58
2017-08-17T17:30:49.695Z,2.50
2017-08-17T17:33:17.402Z,2.72
2017-08-17T17:35:45.895Z,2.40
2017-08-17T17:38:14.373Z,2.90
2017-08-17T17:40:42.859Z,2.03
2017-08-17T17:43:11.338Z,2.00
2017-08-17T17:45:39.832Z,2.40
2017-08-17T17:48:07.558Z,2.55
2017-08-17T17:50:35.270Z,2.70
2017-08-17T17:53:02.986Z,2.30
2017-08-17T17:55:30.713Z,2.30
2017-08-17T17:57:58.434Z,2.92
2017-08-17T18:00:26.911Z,2.20
2017-08-17T18:02:55.399Z,2.20
2017-08-17T18:05:23.883Z,3.12
2017-08-17T18:07:52.362Z,2.65
2017-08-17T18:10:20.851Z,3.37
2017-08-17T18:12:49.344Z,2.85
2017-08-17T18:15:17.060Z,2.80
2017-08-17T18:17:44.782Z,2.25
2017-08-17T18:20:12.494Z,2.80
2017-08-17T18:22:40.261Z,2.45
2017-08-17T18:25:07.995Z,2.30
2017-08-17T18:27:35.705Z,2.30
2017-08-17T18:30:04.245Z,2.08
2017-08-17T18:32:31.974Z,2.70
2017-08-17T18:34:59.695Z,2.22
2017-08-17T18:37:27.407Z,2.10
2017-08-17T18:39:55.112Z,2.40
2017-08-17T18:42:22.813Z,2.60
2017-08-17T18:44:51.294Z,2.28
2017-08-17T18:47:19.766Z,2.22
2017-08-17T18:49:47.491Z,2.33
2017-08-17T18:52:15.221Z,2.65
2017-08-17T18:54:42.921Z,2.65
2017-08-17T18:57:10.639Z,2.42
2017-08-17T18:59:39.130Z,2.28
2017-08-17T19:02:06.843Z,3.17
2017-08-17T19:04:34.566Z,2.67
2017-08-17T19:07:02.323Z,2.53
2017-08-17T19:09:30.046Z,2.20
2017-08-17T19:11:57.771Z,2.55
2017-08-17T19:14:25.482Z,2.40
2017-08-17T19:16:53.190Z,2.47
2017-08-17T19:19:20.897Z,2.10
2017-08-17T19:21:48.633Z,2.00
2017-08-17T19:24:16.378Z,2.58
2017-08-17T19:26:44.086Z,2.20
2017-08-17T19:29:11.807Z,2.03
2017-08-17T19:31:39.533Z,2.20
2017-08-17T19:34:07.243Z,2.25
2017-08-17T19:36:34.960Z,2.58
2017-08-17T19:39:03.521Z,2.87
2017-08-17T19:41:31.245Z,2.70
2017-08-17T19:43:58.957Z,2.17
2017-08-17T19:46:26.676Z,2.80
2017-08-17T19:48:54.400Z,2.65
2017-08-17T19:51:22.879Z,3.00
2017-08-17T19:53:50.604Z,2.62
2017-08-17T19:56:19.625Z,1.98
2017-08-17T19:58:49.181Z,2.60
2017-08-17T20:01:16.934Z,2.25
2017-08-17T20:03:44.650Z,2.70
2017-08-17T20:06:12.371Z,2.45
2017-08-17T20:08:40.091Z,2.58
2017-08-17T20:11:07.836Z,2.90
2017-08-17T20:13:35.549Z,2.90
2017-08-17T20:16:04.035Z,2.87
2017-08-17T20:18:31.759Z,2.83
2017-08-17T20:20:59.482Z,3.10
2017-08-17T20:23:27.213Z,3.50
2017-08-17T20:25:55.694Z,2.65
2017-08-17T20:28:24.179Z,3.10
2017-08-17T20:30:52.662Z,2.70
2017-08-17T20:33:21.141Z,3.12
2017-08-17T20:35:49.624Z,3.08
2017-08-17T20:38:17.676Z,2.90
2017-08-17T20:40:46.918Z,3.53
2017-08-17T20:43:14.651Z,3.20
2017-08-17T20:45:43.122Z,2.95
2017-08-17T20:48:10.836Z,3.12
2017-08-17T20:50:38.555Z,2.75
2017-08-17T20:53:07.034Z,2.90
2017-08-17T20:55:37.239Z,3.22
2017-08-17T20:58:05.255Z,2.83
2017-08-17T21:00:32.976Z,3.47
2017-08-17T21:03:00.702Z,4.07
2017-08-17T21:05:28.415Z,4.28
2017-08-17T21:07:56.152Z,4.97
2017-08-17T21:10:23.866Z,3.60
2017-08-17T21:12:52.345Z,3.50
2017-08-17T21:15:20.831Z,2.95
2017-08-17T21:17:48.544Z,5.20
2017-08-17T21:20:16.252Z,3.78
2017-08-17T21:22:43.964Z,3.90
2017-08-17T21:25:11.683Z,3.00
2017-08-17T21:27:40.165Z,3.05
2017-08-17T21:30:07.888Z,3.15
2017-08-17T21:32:39.116Z,3.05
2017-08-17T21:35:10.626Z,3.22
2017-08-17T21:37:43.344Z,3.50
2017-08-17T21:40:14.185Z,2.87
2017-08-17T21:42:46.305Z,3.17
2017-08-17T21:45:17.904Z,2.67
2017-08-17T21:47:49.605Z,2.97
2017-08-17T21:50:21.490Z,3.05
2017-08-17T21:52:51.564Z,3.00
2017-08-17T21:55:20.757Z,3.10
2017-08-17T21:57:49.914Z,2.67
2017-08-17T22:00:19.391Z,2.80
2017-08-17T22:02:49.202Z,2.90
2017-08-17T22:05:17.697Z,2.55
2017-08-17T22:07:46.182Z,2.80
2017-08-17T22:10:14.675Z,3.10
2017-08-17T22:12:42.395Z,2.80
2017-08-17T22:15:10.114Z,2.67
2017-08-17T22:17:37.839Z,3.10
2017-08-17T22:20:06.425Z,2.87
2017-08-17T22:22:34.915Z,2.72
2017-08-17T22:25:03.406Z,2.70
2017-08-17T22:27:31.892Z,2.58
2017-08-17T22:29:59.605Z,2.90
2017-08-17T22:32:27.322Z,3.10
2017-08-17T22:34:57.046Z,3.20
2017-08-17T22:37:27.034Z,3.37
2017-08-17T22:39:55.516Z,2.60
2017-08-17T22:42:23.239Z,3.72
2017-08-17T22:44:51.044Z,3.35
2017-08-17T22:47:19.526Z,3.10
2017-08-17T22:49:48.007Z,3.42
2017-08-17T22:52:16.488Z,3.25
2017-08-17T22:54:44.993Z,2.83
2017-08-17T22:57:12.712Z,3.17
2017-08-17T22:59:40.439Z,2.65
2017-08-17T23:02:08.152Z,3.35
2017-08-17T23:04:35.881Z,3.28
2017-08-17T23:07:03.610Z,3.15
2017-08-17T23:09:31.331Z,2.75
2017-08-17T23:11:59.067Z,3.28
2017-08-17T23:14:26.785Z,3.15
2017-08-17T23:16:55.282Z,2.95
2017-08-17T23:19:22.991Z,2.83
2017-08-17T23:21:50.711Z,3.05
2017-08-17T23:24:18.443Z,3.72
2017-08-17T23:26:46.924Z,3.30
2017-08-17T23:29:14.731Z,2.80
2017-08-17T23:32:11.191Z,3.30
2017-08-17T23:38:19.004Z,3.20
